Mc Cool Junction, Nebraska
Current Conditions -  °F | °C
As of 9:55 AM on Sunday 21 Dec 2014 (Local Time) from KJYR Reporting Station
Moderate Fog Moderate Fog  
Wind Chill: 25°   Ceiling: 200
Heat Index: 36°   Visibility: 0.5mi
Dew Point: 36°   Wind: 18mph
Humidity: 100%   Direction: 200°SSW
Pressure: 29.81"   Gusts: 26mph
Location:  40.7421°N, 97.5973°W
Report Text: KJYR 211555Z AUTO 20016G23KT 1/2SM FG OVC002 02/02 A2981 RMK AO2 P0001
Loading
Personal Weather Stations






























Interactive Weather Map New forecast layout! Learn more

10-Day Weather Forecast

Advertisements
Track Severe Weather on mobile